PHKONSTU

Guest
Details From PHKO - Kona Intl At Keahole
To NSTU - Pago Pago Intl
Flight Number -
Tags Generated
Created
Modified
Stats Distance 2,223 nm / 4,118 km
Max Altitude 0 ft / 0 m
Waypoints 3
Social Downloads 1
Likes 0
Share VATSIM

Download

Looking for another format? Having issues loading an existing format? Contact us
Advertisement - Login to hide

Notes

Generated

Route

PHKO TUT NSTU

ID Type Via Altitude Latitude Longitude Leg Dist Tot Dist Heading (true) Name
O PHKO APT - 0 ft / 0 m 19.75386˚ -156.04429˚ - 0 nm - -
TUT VOR - 0 ft / 0 m -14.33258˚ -170.70828˚ 2222 nm 2222 nm 204° / 203° PAGO PAGO VORTAC
O NSTU APT - 0 ft / 0 m -14.32694˚ -170.71321˚ 0 nm 2223 nm 320° / 320° Pago Pago

Altitude Profile

Advertisement - Login to hide

Weather


0- 5 10 15 20 25 30 35+ Temperature / ° C

Clouds and Precipitation
Forecast for 2017-12-16 18:00 UTC. Updated 6 minutes ago

Ground ~20,000 ft ~40,000 ft Winds

PHKO

Details ICAO PHKO (KOA)
Name Kona Intl At Keahole
Region USA (Hawaii)
Timezone Pacific/Honolulu (UTC-10.0)
Stats Elevation 45 ft / 14 m (AMSL)
Location 19.739343° -156.045756°
Runways 1
Magnetic Variation 9.436° E

METAR

PHKO 161453Z AUTO 14010KT 10SM FEW065 22/13 A2983

Decode

TAF

TAF PHKO 161120Z 1612/1712 10007KT P6SM FEW030 BKN045 FM162000 22014G23KT P6SM FEW030 FEW060 FM170500 19006KT P6SM FEW025 SCT060

Decode

Departure Runways

ID Width Length Bearing (true) Bearing (mag) Surface Threshold Offset Overrun Length
17 150 ft / 46 m 11,461 ft / 3,493 m 184.77° 175.33° Asphalt 407 ft / 124 m 0 ft / 0 m
35 150 ft / 46 m 11,461 ft / 3,493 m 4.77° 355.33° Asphalt 0 ft / 0 m 404 ft / 123 m

NSTU

Details ICAO NSTU (PPG)
Name Pago Pago
Region American Samoa
Timezone Unknown (UTC+0.0)
Stats Elevation 0 ft / 0 m (AMSL)
Location -14.330060° -170.710244°
Runways 2
Magnetic Variation 11.773° E

METAR

NSTU 161450Z VRB03KT 10SM -SHRA FEW018 BKN040 OVC100 26/24 A2966 RMK SHRAB03 SLP046 60001 8/87/ T02560240 56014

Decode

TAF

TAF NSTU 161120Z 1612/1712 12007KT P6SM VCSH SCT020 BKN040 BKN100 FM170300 14008KT 4SM SHRA VCTS BKN020CB OVC040

Decode

Destination Runways

ID Width Length Bearing (true) Bearing (mag) Surface Threshold Offset Overrun Length
05 151 ft / 46 m 10,007 ft / 3,050 m 60.00° 48.23° Asphalt 1,001 ft / 305 m 413 ft / 126 m
08 98 ft / 30 m 3,907 ft / 1,191 m 89.93° 78.16° Asphalt 0 ft / 0 m 371 ft / 113 m
23 151 ft / 46 m 10,007 ft / 3,050 m 240.00° 228.23° Asphalt 784 ft / 239 m 226 ft / 69 m
26 98 ft / 30 m 3,907 ft / 1,191 m 269.93° 258.16° Asphalt 112 ft / 34 m 0 ft / 0 m

Approach Navaids

Runway Type Ident Frequency Range Bearing (true) Bearing (mag) Slope Elevation
05 Localiser ITUT 110.30 MHz 18 nm / 33 km 58.08° 46.30° - 9 ft / 3 m (AMSL)
05 Glidescope ITUT 110.30 MHz 10 nm / 19 km 60.00° 48.23° 3.25° 28 ft / 9 m (AMSL)
05 DME ITUT 110.30 MHz 18 nm / 33 km - - - 9 ft / 3 m (AMSL)

Popular Alternatives